createdAt,value
2022-10-22T00:02:44.077Z,14.60
2022-10-22T00:06:46.979Z,14.50
2022-10-22T00:10:49.884Z,14.50
2022-10-22T00:14:52.716Z,14.40
2022-10-22T00:18:57.025Z,14.40
2022-10-22T00:22:59.923Z,14.40
2022-10-22T00:27:02.786Z,14.30
2022-10-22T00:31:06.070Z,14.20
2022-10-22T00:35:10.319Z,14.20
2022-10-22T00:39:16.114Z,14.20
2022-10-22T00:43:19.998Z,14.20
2022-10-22T00:47:23.902Z,14.10
2022-10-22T00:51:29.917Z,14.10
2022-10-22T00:55:33.808Z,14.10
2022-10-22T00:59:37.446Z,14.00
2022-10-22T01:03:40.312Z,14.00
2022-10-22T01:07:45.911Z,14.00
2022-10-22T01:11:53.978Z,14.00
2022-10-22T01:16:00.815Z,13.90
2022-10-22T01:20:11.818Z,13.90
2022-10-22T01:24:30.046Z,13.90
2022-10-22T01:28:46.971Z,13.80
2022-10-22T01:32:51.817Z,13.80
2022-10-22T01:36:55.803Z,13.80
2022-10-22T01:40:59.255Z,13.80
2022-10-22T01:45:03.431Z,13.80
2022-10-22T01:49:17.668Z,13.70
2022-10-22T01:53:26.377Z,13.70
2022-10-22T01:57:34.079Z,13.70
2022-10-22T02:01:42.629Z,13.70
2022-10-22T02:05:46.983Z,13.80
2022-10-22T02:09:50.275Z,13.70
2022-10-22T02:13:55.907Z,13.80
2022-10-22T02:18:00.921Z,13.80
2022-10-22T02:22:04.115Z,13.80
2022-10-22T02:26:08.856Z,13.80
2022-10-22T02:30:12.728Z,13.80
2022-10-22T02:34:18.880Z,13.80
2022-10-22T02:38:22.359Z,13.90
2022-10-22T02:42:25.485Z,13.80
2022-10-22T02:46:28.336Z,13.90
2022-10-22T02:50:32.520Z,13.90
2022-10-22T02:54:35.517Z,13.90
2022-10-22T02:58:38.347Z,14.00
2022-10-22T03:02:41.193Z,14.00
2022-10-22T03:06:45.408Z,14.00
2022-10-22T03:10:48.240Z,14.00
2022-10-22T03:14:51.066Z,13.90
2022-10-22T03:18:53.907Z,13.90
2022-10-22T03:22:58.419Z,13.80
2022-10-22T03:27:01.272Z,13.80
2022-10-22T03:31:04.119Z,13.80
2022-10-22T03:35:07.209Z,13.80
2022-10-22T03:39:12.985Z,13.80
2022-10-22T03:43:15.892Z,13.70
2022-10-22T03:47:18.717Z,13.70
2022-10-22T03:51:21.563Z,13.70
2022-10-22T03:55:25.966Z,13.70
2022-10-22T03:59:28.801Z,13.60
2022-10-22T04:03:31.644Z,13.60
2022-10-22T04:07:34.507Z,13.60
2022-10-22T04:11:38.764Z,13.60
2022-10-22T04:15:41.618Z,13.50
2022-10-22T04:19:44.499Z,13.50
2022-10-22T04:23:47.713Z,13.50
2022-10-22T04:27:52.005Z,13.50
2022-10-22T04:31:54.870Z,13.50
2022-10-22T04:35:57.691Z,13.50
2022-10-22T04:40:00.588Z,13.40
2022-10-22T04:44:12.354Z,13.40
2022-10-22T04:48:19.015Z,13.40
2022-10-22T04:52:21.870Z,13.40
2022-10-22T04:56:26.006Z,13.40
2022-10-22T05:00:30.228Z,13.30
2022-10-22T05:04:33.091Z,13.30
2022-10-22T05:08:36.279Z,13.30
2022-10-22T05:12:39.205Z,13.30
2022-10-22T05:16:43.521Z,13.20
2022-10-22T05:20:46.530Z,13.20
2022-10-22T05:24:49.743Z,13.20
2022-10-22T05:28:53.016Z,13.10
2022-10-22T05:32:57.281Z,13.10
2022-10-22T05:37:00.139Z,13.10
2022-10-22T05:41:03.492Z,13.10
2022-10-22T05:45:08.256Z,13.10
2022-10-22T05:49:14.155Z,13.00
2022-10-22T05:53:17.103Z,12.90
2022-10-22T05:57:19.957Z,12.90
2022-10-22T06:01:24.285Z,12.80
2022-10-22T06:05:28.535Z,12.70
2022-10-22T06:09:32.807Z,12.70
2022-10-22T06:13:35.677Z,12.70
2022-10-22T06:17:38.558Z,12.70
2022-10-22T06:21:43.034Z,12.60
2022-10-22T06:25:45.922Z,12.60
2022-10-22T06:29:49.026Z,12.50
2022-10-22T06:33:51.870Z,12.50
2022-10-22T06:37:56.056Z,12.50
2022-10-22T06:41:58.984Z,12.50
2022-10-22T06:46:02.166Z,12.60
2022-10-22T06:50:05.239Z,12.60
2022-10-22T06:54:09.524Z,12.60
2022-10-22T06:58:12.330Z,12.70
2022-10-22T07:02:15.167Z,12.80
2022-10-22T07:06:18.032Z,12.80
2022-10-22T07:10:23.485Z,12.90
2022-10-22T07:14:27.905Z,12.90
2022-10-22T07:18:30.909Z,13.00
2022-10-22T07:22:33.930Z,13.00
2022-10-22T07:26:38.153Z,13.10
2022-10-22T07:30:41.184Z,13.20
2022-10-22T07:34:44.091Z,13.30
2022-10-22T07:38:47.323Z,13.40
2022-10-22T07:42:51.555Z,13.50
2022-10-22T07:46:54.407Z,13.60
2022-10-22T07:50:58.323Z,13.70
2022-10-22T07:55:01.164Z,13.90
2022-10-22T11:09:45.356Z,24.40
2022-10-22T11:13:51.847Z,24.10
2022-10-22T11:17:57.248Z,23.70
2022-10-22T11:22:05.192Z,23.40
2022-10-22T11:26:14.212Z,23.30
2022-10-22T11:30:17.990Z,23.10
2022-10-22T11:34:33.856Z,22.80
2022-10-22T11:38:38.268Z,22.50
2022-10-22T11:42:46.818Z,22.10
2022-10-22T11:46:56.199Z,22.00
2022-10-22T11:51:00.210Z,21.90
2022-10-22T11:55:03.780Z,21.90
2022-10-22T11:59:31.648Z,22.20
2022-10-22T12:03:41.126Z,22.50
2022-10-22T12:07:52.751Z,22.50
2022-10-22T12:11:55.756Z,22.40
2022-10-22T12:16:00.944Z,22.30
2022-10-22T12:20:08.393Z,22.30
2022-10-22T12:24:14.077Z,22.10
2022-10-22T12:28:17.185Z,21.90
2022-10-22T12:32:21.487Z,21.80
2022-10-22T12:36:26.490Z,21.60
2022-10-22T12:40:30.908Z,21.40
2022-10-22T12:44:33.771Z,21.20
2022-10-22T12:48:39.837Z,21.10
2022-10-22T12:52:43.248Z,21.10
2022-10-22T12:56:48.364Z,21.00
2022-10-22T13:00:57.345Z,20.90
2022-10-22T13:05:21.466Z,20.80
2022-10-22T13:09:27.735Z,20.70
2022-10-22T13:13:31.667Z,20.60
2022-10-22T13:17:42.103Z,20.40
2022-10-22T13:21:49.644Z,20.20
2022-10-22T13:26:00.237Z,19.90
2022-10-22T13:30:04.046Z,19.80
2022-10-22T13:34:11.840Z,19.60
2022-10-22T13:38:19.424Z,19.50
2022-10-22T13:42:22.380Z,19.40
2022-10-22T13:46:26.054Z,19.40
2022-10-22T13:50:28.907Z,19.30
2022-10-22T13:54:33.132Z,19.30
2022-10-22T13:58:36.011Z,19.30
2022-10-22T14:02:39.066Z,19.20
2022-10-22T14:06:42.110Z,19.20
2022-10-22T14:10:46.451Z,19.10
2022-10-22T14:14:49.300Z,19.10
2022-10-22T14:18:52.708Z,19.00
2022-10-22T14:22:55.895Z,19.00
2022-10-22T14:27:00.112Z,18.80
2022-10-22T14:31:02.992Z,18.80
2022-10-22T14:35:06.158Z,18.70
2022-10-22T14:39:09.134Z,18.70
2022-10-22T14:43:14.356Z,18.60
2022-10-22T14:47:17.205Z,18.50
2022-10-22T14:51:21.296Z,18.50
2022-10-22T14:55:26.216Z,18.40
2022-10-22T14:59:30.616Z,18.30
2022-10-22T15:03:34.259Z,18.20
2022-10-22T15:07:38.024Z,18.10
2022-10-22T15:11:42.809Z,18.10
2022-10-22T15:15:47.139Z,18.00
2022-10-22T15:19:49.961Z,18.00
2022-10-22T15:23:52.966Z,17.90
2022-10-22T15:28:00.807Z,17.90
2022-10-22T15:32:11.760Z,17.80
2022-10-22T15:36:15.708Z,17.80
2022-10-22T15:40:18.686Z,17.70
2022-10-22T15:44:24.385Z,17.60
2022-10-22T15:48:28.652Z,17.60
2022-10-22T15:52:32.174Z,17.50
2022-10-22T15:56:35.026Z,17.50
2022-10-22T16:00:37.879Z,17.40
2022-10-22T16:04:42.181Z,17.40
2022-10-22T16:08:45.630Z,17.30
2022-10-22T16:12:51.736Z,17.30
2022-10-22T16:16:55.535Z,17.30
2022-10-22T16:21:00.006Z,17.30
2022-10-22T16:25:02.840Z,17.30
2022-10-22T16:29:08.581Z,17.30
2022-10-22T16:33:11.567Z,17.20
2022-10-22T16:37:15.913Z,17.20
2022-10-22T16:41:19.947Z,17.20
2022-10-22T16:45:22.788Z,17.10
2022-10-22T16:49:25.735Z,17.10
2022-10-22T16:53:29.986Z,17.10
2022-10-22T16:57:33.968Z,17.00
2022-10-22T17:01:40.621Z,17.00
2022-10-22T17:05:44.178Z,16.90
2022-10-22T17:09:48.364Z,16.80
2022-10-22T17:13:52.698Z,16.80
2022-10-22T17:17:55.606Z,16.70
2022-10-22T17:21:58.547Z,16.60
2022-10-22T17:26:03.607Z,16.60
2022-10-22T17:30:07.365Z,16.50
2022-10-22T17:34:11.905Z,16.40
2022-10-22T17:38:14.723Z,16.40
2022-10-22T17:42:18.946Z,16.30
2022-10-22T17:46:22.823Z,16.20
2022-10-22T17:50:25.657Z,16.20
2022-10-22T17:54:28.576Z,16.10
2022-10-22T17:58:32.770Z,16.00
2022-10-22T18:02:35.633Z,15.90
2022-10-22T18:06:38.739Z,15.80
2022-10-22T18:10:42.108Z,15.80
2022-10-22T18:14:47.046Z,15.70
2022-10-22T18:18:50.350Z,15.50
2022-10-22T18:22:55.048Z,15.50
2022-10-22T18:26:57.905Z,15.40
2022-10-22T18:31:05.802Z,15.30
2022-10-22T18:35:08.904Z,15.20
2022-10-22T18:39:12.992Z,15.10
2022-10-22T18:43:15.867Z,15.10
2022-10-22T18:47:20.092Z,15.00
2022-10-22T18:51:24.014Z,14.90
2022-10-22T18:55:26.925Z,14.80
2022-10-22T18:59:29.774Z,14.70
2022-10-22T19:03:34.129Z,14.70
2022-10-22T19:07:37.293Z,14.60
2022-10-22T19:11:40.157Z,14.50
2022-10-22T19:15:43.033Z,14.50
2022-10-22T19:19:47.368Z,14.40
2022-10-22T19:23:51.621Z,14.40
2022-10-22T19:27:54.475Z,14.30
2022-10-22T19:31:57.361Z,14.30
2022-10-22T19:36:04.325Z,14.20
2022-10-22T19:40:08.138Z,14.20
2022-10-22T19:44:11.422Z,14.10
2022-10-22T19:48:14.328Z,14.10
2022-10-22T19:52:18.596Z,14.00
2022-10-22T19:56:21.845Z,14.00
2022-10-22T20:00:24.751Z,13.90
2022-10-22T20:04:28.156Z,13.90
2022-10-22T20:08:34.570Z,13.80
2022-10-22T20:12:37.521Z,13.70
2022-10-22T20:16:40.436Z,13.70
2022-10-22T20:20:43.254Z,13.70
2022-10-22T20:24:47.532Z,13.60
2022-10-22T20:28:50.483Z,13.60
2022-10-22T20:32:53.348Z,13.60
2022-10-22T20:36:56.213Z,13.50
2022-10-22T20:41:02.241Z,13.50
2022-10-22T20:45:05.345Z,13.50
2022-10-22T20:49:09.966Z,13.40
2022-10-22T20:53:16.067Z,13.40
2022-10-22T20:57:21.200Z,13.30
2022-10-22T21:01:24.393Z,13.30
2022-10-22T21:05:27.308Z,13.20
2022-10-22T21:09:30.167Z,13.20
2022-10-22T21:13:35.071Z,13.10
2022-10-22T21:17:37.930Z,13.10
2022-10-22T21:21:40.782Z,13.10
2022-10-22T21:25:53.394Z,13.00
2022-10-22T21:29:57.620Z,13.00
2022-10-22T21:34:00.475Z,12.90
2022-10-22T21:38:03.625Z,12.90
2022-10-22T21:42:06.523Z,12.90
2022-10-22T21:46:11.779Z,12.90
2022-10-22T21:50:14.933Z,12.90
2022-10-22T21:54:17.807Z,12.90
2022-10-22T21:58:20.727Z,12.90
2022-10-22T22:02:27.250Z,12.90
2022-10-22T22:06:33.471Z,12.80
2022-10-22T22:10:36.676Z,12.80
2022-10-22T22:14:39.550Z,12.80
2022-10-22T22:18:43.827Z,12.80
2022-10-22T22:22:46.692Z,12.70
2022-10-22T22:26:49.664Z,12.70
2022-10-22T22:30:52.516Z,12.60
2022-10-22T22:34:56.715Z,12.60
2022-10-22T22:38:59.576Z,12.60
2022-10-22T22:43:02.430Z,12.60
2022-10-22T22:47:05.495Z,12.50
2022-10-22T22:51:09.729Z,12.50
2022-10-22T22:55:12.570Z,12.40
2022-10-22T22:59:16.398Z,12.40
2022-10-22T23:03:19.358Z,12.40
2022-10-22T23:07:24.037Z,12.30
2022-10-22T23:11:27.783Z,12.30
2022-10-22T23:15:30.628Z,12.20
2022-10-22T23:19:33.475Z,12.20
2022-10-22T23:23:37.806Z,12.20
2022-10-22T23:27:40.986Z,12.20
2022-10-22T23:31:44.691Z,12.10
2022-10-22T23:35:47.531Z,12.10
2022-10-22T23:39:51.710Z,12.10
2022-10-22T23:43:54.530Z,12.10
2022-10-22T23:47:57.371Z,12.00
2022-10-22T23:52:00.210Z,12.00
2022-10-22T23:56:06.403Z,12.00
